Lebanon, Missouri
Current Conditions -  °F | °C
As of 2:35 PM on Tuesday 25 Nov 2014 (Local Time) from KH21 Reporting Station
Clear Clear  
Wind Chill: 36°   Ceiling: Unl
Heat Index: 41°   Visibility: 10mi
Dew Point: 16°   Wind: 8mph
Humidity: 36%   Direction: 220°SW
Pressure: 30.15"   Gusts: NA
Location:  37.68°N, 92.66°W
Report Text: KH21 252035Z AUTO 22007KT 10SM CLR 05/M09 A3015 RMK AO2
Loading
Personal Weather Stations






























Interactive Weather Map New forecast layout! Learn more

10-Day Weather Forecast

Advertisements
Track Severe Weather on mobile